createdAt,value
2019-05-02T00:01:46.800Z,9.29
2019-05-02T00:04:20.024Z,9.22
2019-05-02T00:07:03.817Z,9.23
2019-05-02T00:09:33.824Z,9.23
2019-05-02T00:12:05.051Z,9.19
2019-05-02T00:14:34.790Z,9.15
2019-05-02T00:17:04.583Z,9.20
2019-05-02T00:19:34.575Z,9.26
2019-05-02T00:22:04.789Z,9.25
2019-05-02T00:24:39.187Z,9.21
2019-05-02T00:27:05.982Z,9.08
2019-05-02T00:29:36.289Z,8.97
2019-05-02T00:32:06.055Z,9.01
2019-05-02T00:34:35.728Z,9.01
2019-05-02T00:37:06.048Z,8.80
2019-05-02T00:39:35.798Z,8.77
2019-05-02T00:42:12.465Z,8.77
2019-05-02T00:44:42.111Z,8.76
2019-05-02T00:47:20.015Z,8.74
2019-05-02T00:49:49.771Z,8.69
2019-05-02T00:52:19.466Z,8.69
2019-05-02T00:54:49.165Z,8.69
2019-05-02T00:57:19.890Z,8.70
2019-05-02T00:59:51.011Z,8.64
2019-05-02T01:02:26.875Z,8.64
2019-05-02T01:04:59.323Z,8.45
2019-05-02T01:07:28.286Z,8.48
2019-05-02T01:09:58.416Z,8.48
2019-05-02T01:12:28.406Z,8.47
2019-05-02T01:14:58.154Z,8.46
2019-05-02T01:17:30.860Z,8.42
2019-05-02T01:19:59.835Z,8.42
2019-05-02T01:22:29.799Z,8.45
2019-05-02T01:24:59.698Z,8.45
2019-05-02T01:27:48.721Z,8.45
2019-05-02T01:30:37.120Z,8.15
2019-05-02T01:33:17.527Z,8.25
2019-05-02T01:36:09.301Z,8.18
2019-05-02T01:38:43.021Z,8.18
2019-05-02T01:41:12.984Z,8.10
2019-05-02T01:43:42.836Z,8.22
2019-05-02T01:46:12.515Z,8.21
2019-05-02T01:48:45.755Z,8.30
2019-05-02T01:51:14.389Z,8.30
2019-05-02T01:53:44.175Z,8.24
2019-05-02T01:56:13.826Z,8.26
2019-05-02T01:58:43.402Z,8.26
2019-05-02T02:01:16.243Z,8.23
2019-05-02T02:03:45.712Z,8.23
2019-05-02T02:06:16.459Z,8.19
2019-05-02T02:08:46.053Z,8.19
2019-05-02T02:11:15.745Z,8.12
2019-05-02T02:13:45.527Z,8.04
2019-05-02T02:16:15.128Z,8.08
2019-05-02T02:19:03.947Z,7.95
2019-05-02T02:21:43.017Z,7.93
2019-05-02T02:24:25.214Z,7.81
2019-05-02T02:26:53.075Z,7.76
2019-05-02T02:29:22.827Z,7.90
2019-05-02T02:31:52.650Z,7.89
2019-05-02T02:34:29.292Z,7.87
2019-05-02T02:36:54.355Z,7.87
2019-05-02T02:39:23.966Z,7.92
2019-05-02T02:41:54.187Z,7.92
2019-05-02T02:44:49.262Z,7.98
2019-05-02T02:47:21.183Z,8.06
2019-05-02T02:49:55.782Z,8.06
2019-05-02T02:52:22.293Z,8.06
2019-05-02T02:54:52.133Z,8.06
2019-05-02T02:57:27.911Z,8.06
2019-05-02T02:59:59.640Z,8.06
2019-05-02T03:02:25.132Z,7.98
2019-05-02T03:04:54.942Z,7.93
2019-05-02T03:07:26.398Z,7.93
2019-05-02T03:09:59.564Z,7.96
2019-05-02T03:12:51.509Z,8.12
2019-05-02T03:15:28.037Z,8.12
2019-05-02T03:17:53.445Z,8.13
2019-05-02T03:20:23.118Z,8.15
2019-05-02T03:22:53.438Z,8.25
2019-05-02T03:25:25.064Z,8.36
2019-05-02T03:27:54.433Z,8.32
2019-05-02T03:30:32.283Z,8.37
2019-05-02T03:33:05.208Z,8.28
2019-05-02T03:35:41.784Z,8.28
2019-05-02T03:37:58.792Z,8.48
2019-05-02T03:40:32.307Z,8.48
2019-05-02T03:43:02.280Z,8.52
2019-05-02T03:45:39.624Z,8.68
2019-05-02T03:48:03.476Z,8.71
2019-05-02T03:50:35.356Z,8.71
2019-05-02T03:53:05.034Z,8.58
2019-05-02T03:55:35.169Z,8.68
2019-05-02T03:58:12.822Z,8.62
2019-05-02T04:00:36.533Z,8.55
2019-05-02T04:03:06.425Z,8.55
2019-05-02T04:05:40.263Z,8.43
2019-05-02T04:08:19.760Z,8.73
2019-05-02T04:11:21.951Z,8.65
2019-05-02T04:13:53.407Z,8.57
2019-05-02T04:16:23.917Z,8.57
2019-05-02T04:18:55.610Z,8.66
2019-05-02T04:21:26.531Z,8.88
2019-05-02T04:24:07.498Z,8.76
2019-05-02T04:26:28.971Z,8.67
2019-05-02T04:28:58.687Z,8.67
2019-05-02T04:31:31.549Z,8.63
2019-05-02T04:34:00.571Z,8.85
2019-05-02T04:36:30.428Z,8.97
2019-05-02T04:39:05.794Z,8.97
2019-05-02T04:41:34.418Z,8.81
2019-05-02T04:44:05.170Z,8.81
2019-05-02T04:46:34.762Z,8.82
2019-05-02T04:49:04.657Z,8.61
2019-05-02T04:51:34.473Z,8.56
2019-05-02T04:54:04.303Z,8.46
2019-05-02T04:59:17.877Z,9.41
2019-05-02T05:01:49.795Z,9.41
2019-05-02T05:04:17.935Z,9.29
2019-05-02T05:06:56.206Z,9.41
2019-05-02T05:09:19.147Z,9.13
2019-05-02T05:11:49.078Z,9.14
2019-05-02T05:14:19.176Z,9.14
2019-05-02T05:16:55.668Z,8.97
2019-05-02T05:19:31.014Z,8.79
2019-05-02T05:22:04.370Z,8.79
2019-05-02T05:24:42.165Z,9.07
2019-05-02T05:27:13.188Z,9.25
2019-05-02T05:29:42.320Z,9.25
2019-05-02T05:32:11.920Z,9.13
2019-05-02T05:34:41.643Z,9.15
2019-05-02T05:37:13.394Z,9.08
2019-05-02T05:39:43.090Z,9.08
2019-05-02T05:42:13.864Z,8.91
2019-05-02T05:44:44.270Z,9.03
2019-05-02T05:47:17.650Z,9.03
2019-05-02T05:49:47.617Z,9.15
2019-05-02T05:52:18.087Z,8.98
2019-05-02T05:54:48.204Z,9.45
2019-05-02T05:57:21.057Z,9.45
2019-05-02T05:59:49.228Z,9.63
2019-05-02T06:02:19.436Z,9.60
2019-05-02T06:04:50.184Z,9.60
2019-05-02T06:07:20.323Z,9.77
2019-05-02T06:09:49.942Z,9.77
2019-05-02T06:12:20.159Z,9.78
2019-05-02T06:14:56.265Z,9.78
2019-05-02T06:17:28.534Z,9.82
2019-05-02T06:19:55.469Z,9.86
2019-05-02T06:22:25.708Z,9.83
2019-05-02T06:24:55.551Z,9.73
2019-05-02T06:27:27.793Z,9.71
2019-05-02T06:29:57.327Z,9.94
2019-05-02T06:32:26.967Z,10.13
2019-05-02T06:34:56.673Z,9.76
2019-05-02T06:37:26.769Z,9.76
2019-05-02T06:39:57.129Z,10.32
2019-05-02T06:42:27.662Z,10.03
2019-05-02T06:44:59.737Z,9.68
2019-05-02T06:47:30.623Z,9.52
2019-05-02T06:50:02.570Z,9.72
2019-05-02T06:52:34.574Z,9.72
2019-05-02T06:55:04.375Z,9.90
2019-05-02T06:57:34.894Z,9.85
2019-05-02T07:00:06.620Z,9.89
2019-05-02T07:02:38.155Z,9.98
2019-05-02T07:05:08.274Z,10.11
2019-05-02T07:07:38.470Z,10.04
2019-05-02T07:10:08.948Z,10.14
2019-05-02T07:12:39.066Z,10.14
2019-05-02T07:15:14.246Z,10.15
2019-05-02T07:17:46.075Z,10.28
2019-05-02T07:20:19.251Z,10.11
2019-05-02T07:22:49.130Z,10.33
2019-05-02T07:25:19.006Z,10.33
2019-05-02T07:27:49.650Z,10.40
2019-05-02T07:30:20.995Z,10.34
2019-05-02T07:32:50.875Z,10.34
2019-05-02T07:35:24.573Z,10.60
2019-05-02T07:37:52.652Z,10.84
2019-05-02T07:40:22.474Z,10.79
2019-05-02T07:42:52.142Z,10.79
2019-05-02T07:45:23.560Z,10.76
2019-05-02T07:47:53.539Z,10.68
2019-05-02T07:50:25.912Z,10.68
2019-05-02T07:52:55.643Z,10.64
2019-05-02T07:55:25.344Z,10.64
2019-05-02T07:57:55.141Z,10.57
2019-05-02T08:00:44.226Z,10.57
2019-05-02T08:03:13.761Z,10.65
2019-05-02T08:05:43.483Z,10.86
2019-05-02T08:08:13.961Z,11.13
2019-05-02T08:10:43.635Z,11.13
2019-05-02T08:13:17.458Z,10.80
2019-05-02T08:15:45.582Z,11.00
2019-05-02T08:18:16.377Z,11.00
2019-05-02T08:20:50.991Z,11.14
2019-05-02T08:23:25.788Z,10.84
2019-05-02T08:25:52.436Z,11.00
2019-05-02T08:28:28.035Z,11.02
2019-05-02T08:30:58.538Z,11.02
2019-05-02T08:33:29.329Z,11.09
2019-05-02T08:36:00.007Z,11.12
2019-05-02T08:38:29.670Z,11.12
2019-05-02T08:40:59.741Z,11.11
2019-05-02T08:43:29.959Z,10.95
2019-05-02T08:46:09.544Z,10.95
2019-05-02T08:48:41.858Z,11.02
2019-05-02T08:51:09.249Z,11.22
2019-05-02T08:53:39.132Z,11.22
2019-05-02T08:56:08.984Z,10.87
2019-05-02T08:58:39.168Z,10.88
2019-05-02T09:01:13.251Z,10.88
2019-05-02T09:03:54.868Z,10.96
2019-05-02T09:06:11.665Z,11.06
2019-05-02T09:08:46.192Z,11.08
2019-05-02T09:11:15.637Z,11.23
2019-05-02T09:13:46.009Z,11.23
2019-05-02T09:16:15.374Z,11.43
2019-05-02T09:18:51.802Z,11.32
2019-05-02T09:21:19.607Z,11.58
2019-05-02T09:23:49.126Z,11.58
2019-05-02T09:26:33.304Z,11.81
2019-05-02T09:28:51.713Z,11.81
2019-05-02T09:31:22.672Z,11.91
2019-05-02T09:33:55.501Z,11.87
2019-05-02T09:36:23.879Z,11.89
2019-05-02T09:38:57.472Z,12.12
2019-05-02T09:41:26.941Z,12.12
2019-05-02T09:43:56.454Z,11.87
2019-05-02T09:46:26.594Z,12.05
2019-05-02T09:48:57.140Z,12.05
2019-05-02T09:51:27.311Z,12.40
2019-05-02T09:54:01.843Z,12.40
2019-05-02T09:56:28.415Z,12.50
2019-05-02T09:59:04.797Z,12.60
2019-05-02T10:01:38.825Z,12.64
2019-05-02T10:04:09.124Z,12.85
2019-05-02T10:06:39.154Z,12.82
2019-05-02T10:09:12.077Z,12.90
2019-05-02T10:11:41.942Z,12.90
2019-05-02T10:14:12.558Z,12.68
2019-05-02T10:16:42.664Z,12.77
2019-05-02T10:19:13.557Z,12.89
2019-05-02T10:21:46.848Z,13.13
2019-05-02T10:24:14.916Z,13.13
2019-05-02T10:26:44.914Z,13.19
2019-05-02T10:29:14.830Z,13.17
2019-05-02T10:31:44.742Z,13.17
2019-05-02T10:34:17.700Z,12.99
2019-05-02T10:36:45.781Z,13.29
2019-05-02T10:39:16.033Z,13.05
2019-05-02T10:41:47.660Z,13.15
2019-05-02T10:44:17.226Z,13.15
2019-05-02T10:46:56.940Z,13.52
2019-05-02T10:49:32.222Z,13.57
2019-05-02T10:52:02.746Z,13.57
2019-05-02T10:54:36.465Z,13.72
2019-05-02T10:57:03.907Z,13.72
2019-05-02T10:59:33.517Z,13.81
2019-05-02T11:02:22.599Z,13.50
2019-05-02T11:04:58.176Z,13.94
2019-05-02T11:07:27.933Z,13.94
2019-05-02T11:10:06.683Z,14.06
2019-05-02T11:12:47.148Z,14.03
2019-05-02T11:15:48.255Z,14.30
2019-05-02T11:18:22.185Z,14.45
2019-05-02T11:20:52.901Z,14.42
2019-05-02T11:25:44.476Z,14.72
2019-05-02T11:28:15.738Z,14.79
2019-05-02T11:30:46.291Z,14.79
2019-05-02T11:33:15.851Z,14.99
2019-05-02T11:35:49.032Z,14.64
2019-05-02T11:38:40.471Z,14.56
2019-05-02T11:40:51.950Z,14.73
2019-05-02T11:43:22.336Z,14.73
2019-05-02T11:45:55.873Z,14.58
2019-05-02T11:48:23.148Z,14.85
2019-05-02T11:50:57.922Z,15.01
2019-05-02T11:53:29.407Z,15.01
2019-05-02T11:55:58.361Z,15.17
2019-05-02T11:58:28.706Z,15.21
2019-05-02T12:00:58.260Z,15.21
2019-05-02T12:03:37.067Z,15.49
2019-05-02T12:06:14.053Z,15.71
2019-05-02T12:08:43.708Z,15.69
2019-05-02T12:11:13.958Z,15.79
2019-05-02T12:13:52.764Z,16.01
2019-05-02T12:16:23.206Z,16.22
2019-05-02T12:19:08.183Z,16.22
2019-05-02T12:21:26.506Z,16.54
2019-05-02T12:23:58.596Z,16.60
2019-05-02T12:26:28.234Z,16.57
2019-05-02T12:28:58.153Z,15.85
2019-05-02T12:31:32.390Z,16.37
2019-05-02T12:34:03.968Z,16.92
2019-05-02T12:36:35.484Z,16.92
2019-05-02T12:39:06.067Z,16.84
2019-05-02T12:41:35.762Z,16.85
2019-05-02T12:44:05.956Z,16.99
2019-05-02T12:46:35.591Z,17.29
2019-05-02T12:49:05.300Z,17.29
2019-05-02T12:51:35.095Z,17.40
2019-05-02T12:54:05.962Z,17.06
2019-05-02T12:56:35.710Z,17.56
2019-05-02T12:59:08.031Z,17.56
2019-05-02T13:01:37.736Z,17.25
2019-05-02T13:04:13.686Z,17.61
2019-05-02T13:06:43.617Z,17.38
2019-05-02T13:09:13.332Z,17.38
2019-05-02T13:11:59.385Z,17.19
2019-05-02T13:14:32.134Z,17.00
2019-05-02T13:17:05.541Z,17.00
2019-05-02T13:19:40.022Z,17.44
2019-05-02T13:22:22.404Z,17.96
2019-05-02T13:25:13.246Z,17.97
2019-05-02T13:28:01.808Z,18.09
2019-05-02T13:30:56.083Z,18.23
2019-05-02T13:33:35.798Z,18.23
2019-05-02T13:36:08.662Z,18.03
2019-05-02T13:38:36.045Z,18.03
2019-05-02T13:41:05.679Z,18.04
2019-05-02T13:43:43.451Z,18.23
2019-05-02T13:46:22.194Z,18.10
2019-05-02T13:48:52.774Z,18.10
2019-05-02T13:51:23.021Z,18.25
2019-05-02T13:53:59.286Z,18.11
2019-05-02T13:56:48.163Z,18.11
2019-05-02T13:59:22.274Z,18.08
2019-05-02T14:01:55.413Z,18.18
2019-05-02T14:04:25.460Z,17.71
2019-05-02T14:06:54.996Z,17.71
2019-05-02T14:09:39.531Z,17.16
2019-05-02T14:12:37.423Z,17.60
2019-05-02T14:15:07.515Z,17.60
2019-05-02T14:17:38.192Z,17.49
2019-05-02T14:20:11.091Z,17.44
2019-05-02T14:22:42.559Z,17.66
2019-05-02T14:25:12.693Z,17.66
2019-05-02T14:27:42.389Z,17.69
2019-05-02T14:30:14.205Z,17.69
2019-05-02T14:32:45.172Z,17.92
2019-05-02T14:35:28.135Z,17.87
2019-05-02T14:38:13.538Z,17.69
2019-05-02T14:41:14.137Z,17.50
2019-05-02T14:43:53.549Z,17.43
2019-05-02T14:46:35.525Z,17.46
2019-05-02T14:48:57.919Z,17.26
2019-05-02T14:51:28.248Z,17.18
2019-05-02T14:54:08.103Z,16.89
2019-05-02T14:56:52.861Z,16.79
2019-05-02T14:59:23.346Z,16.86
2019-05-02T15:01:57.737Z,16.90
2019-05-02T15:04:27.497Z,16.90
2019-05-02T15:06:57.396Z,16.26
2019-05-02T15:09:27.190Z,16.40
2019-05-02T15:12:02.434Z,16.42
2019-05-02T15:14:35.112Z,16.41
2019-05-02T15:17:37.739Z,16.41
2019-05-02T15:20:06.381Z,15.49
2019-05-02T15:22:38.083Z,15.42
2019-05-02T15:25:13.784Z,15.54
2019-05-02T15:27:45.299Z,15.28
2019-05-02T15:30:15.971Z,15.28
2019-05-02T15:32:57.048Z,14.97
2019-05-02T15:35:49.374Z,14.97
2019-05-02T15:38:27.242Z,15.30
2019-05-02T15:40:53.504Z,14.93
2019-05-02T15:43:22.232Z,14.99
2019-05-02T15:45:56.177Z,15.00
2019-05-02T15:48:27.682Z,14.42
2019-05-02T15:51:00.132Z,14.46
2019-05-02T15:53:39.169Z,14.35
2019-05-02T15:56:15.760Z,14.09
2019-05-02T15:58:42.598Z,14.09
2019-05-02T16:01:29.610Z,13.67
2019-05-02T16:04:01.767Z,13.78
2019-05-02T16:06:33.748Z,14.02
2019-05-02T16:09:02.603Z,14.16
2019-05-02T16:11:32.623Z,14.16
2019-05-02T16:14:02.305Z,14.12
2019-05-02T16:16:45.187Z,13.73
2019-05-02T16:19:22.648Z,13.47
2019-05-02T16:21:51.960Z,13.83
2019-05-02T16:24:24.876Z,13.83
2019-05-02T16:26:57.070Z,13.71
2019-05-02T16:29:28.806Z,13.78
2019-05-02T16:32:13.335Z,13.77
2019-05-02T16:34:57.772Z,13.83
2019-05-02T16:37:30.034Z,13.69
2019-05-02T16:40:00.039Z,13.69
2019-05-02T16:42:29.727Z,13.74
2019-05-02T16:45:02.406Z,13.74
2019-05-02T16:47:34.246Z,13.69
2019-05-02T16:50:03.980Z,13.57
2019-05-02T16:52:38.073Z,13.63
2019-05-02T16:55:05.681Z,13.50
2019-05-02T16:57:35.290Z,13.29
2019-05-02T17:00:06.576Z,13.29
2019-05-02T17:02:37.967Z,13.29
2019-05-02T17:05:12.088Z,12.91
2019-05-02T17:08:10.570Z,12.91
2019-05-02T17:10:57.139Z,12.78
2019-05-02T17:13:31.694Z,11.57
2019-05-02T17:15:59.255Z,10.77
2019-05-02T17:18:29.128Z,10.77
2019-05-02T17:20:59.418Z,10.40
2019-05-02T17:23:29.729Z,10.40
2019-05-02T17:26:01.479Z,10.40
2019-05-02T17:28:31.872Z,10.48
2019-05-02T17:31:02.079Z,10.37
2019-05-02T17:33:32.387Z,10.32
2019-05-02T17:36:05.268Z,10.24
2019-05-02T17:38:35.019Z,10.19
2019-05-02T17:41:07.972Z,10.19
2019-05-02T17:43:41.907Z,10.20
2019-05-02T17:46:12.559Z,10.15
2019-05-02T17:48:40.312Z,10.14
2019-05-02T17:51:35.708Z,10.12
2019-05-02T17:54:02.884Z,9.87
2019-05-02T17:56:32.895Z,10.03
2019-05-02T17:59:06.162Z,10.00
2019-05-02T18:01:39.302Z,10.01
2019-05-02T18:04:12.594Z,10.01
2019-05-02T18:06:41.711Z,9.94
2019-05-02T18:09:12.267Z,9.99
2019-05-02T18:11:42.430Z,9.99
2019-05-02T18:14:19.639Z,9.76
2019-05-02T18:16:47.035Z,9.84
2019-05-02T18:19:15.981Z,9.84
2019-05-02T18:21:46.241Z,9.86
2019-05-02T18:24:16.552Z,10.07
2019-05-02T18:26:46.649Z,10.03
2019-05-02T18:29:17.141Z,10.03
2019-05-02T18:31:49.199Z,9.98
2019-05-02T18:34:21.006Z,9.98
2019-05-02T18:36:52.310Z,10.01
2019-05-02T18:39:24.030Z,9.96
2019-05-02T18:41:55.121Z,10.21
2019-05-02T18:44:28.130Z,10.21
2019-05-02T18:46:59.159Z,10.20
2019-05-02T18:49:29.444Z,10.37
2019-05-02T18:52:01.780Z,10.48
2019-05-02T18:54:31.128Z,10.48
2019-05-02T18:57:02.408Z,10.53
2019-05-02T18:59:32.753Z,10.53
2019-05-02T19:02:02.587Z,10.61
2019-05-02T19:04:38.132Z,10.61
2019-05-02T19:07:07.578Z,10.66
2019-05-02T19:09:47.872Z,10.69
2019-05-02T19:12:19.454Z,10.66
2019-05-02T19:14:42.015Z,10.78
2019-05-02T19:17:12.248Z,10.85
2019-05-02T19:19:45.558Z,10.71
2019-05-02T19:22:17.645Z,10.90
2019-05-02T19:24:52.398Z,10.88
2019-05-02T19:27:42.906Z,10.88
2019-05-02T19:30:13.380Z,10.86
2019-05-02T19:32:43.394Z,10.96
2019-05-02T19:35:13.245Z,10.96
2019-05-02T19:37:47.562Z,10.95
2019-05-02T19:40:20.153Z,10.99
2019-05-02T19:42:52.689Z,11.01
2019-05-02T19:45:26.051Z,11.09
2019-05-02T19:48:02.781Z,11.08
2019-05-02T19:50:43.756Z,11.08
2019-05-02T19:53:18.170Z,11.19
2019-05-02T19:55:43.076Z,11.22
2019-05-02T19:58:13.978Z,11.02
2019-05-02T20:00:46.256Z,11.02
2019-05-02T20:03:21.690Z,11.23
2019-05-02T20:05:48.503Z,11.19
2019-05-02T20:08:21.329Z,11.19
2019-05-02T20:10:56.870Z,10.79
2019-05-02T20:13:28.008Z,10.87
2019-05-02T20:16:05.821Z,10.87
2019-05-02T20:18:42.553Z,10.74
2019-05-02T20:21:23.384Z,11.01
2019-05-02T20:23:49.052Z,11.01
2019-05-02T20:26:19.456Z,11.00
2019-05-02T20:28:49.494Z,11.05
2019-05-02T20:31:21.561Z,11.05
2019-05-02T20:33:52.990Z,11.03
2019-05-02T20:36:24.061Z,11.03
2019-05-02T20:38:53.865Z,10.96
2019-05-02T20:41:25.255Z,11.03
2019-05-02T20:43:55.853Z,11.03
2019-05-02T20:46:30.105Z,10.74
2019-05-02T20:49:01.873Z,10.91
2019-05-02T20:51:31.921Z,10.91
2019-05-02T20:54:02.355Z,10.91
2019-05-02T20:56:33.133Z,10.79
2019-05-02T20:59:03.669Z,10.79
2019-05-02T21:01:33.518Z,10.75
2019-05-02T21:04:03.432Z,10.75
2019-05-02T21:06:52.604Z,11.03
2019-05-02T21:09:41.706Z,10.44
2019-05-02T21:12:13.976Z,10.56
2019-05-02T21:14:43.671Z,10.56
2019-05-02T21:17:13.400Z,10.32
2019-05-02T21:19:43.386Z,10.43
2019-05-02T21:22:18.077Z,10.23
2019-05-02T21:24:47.856Z,10.23
2019-05-02T21:27:17.647Z,10.03
2019-05-02T21:29:47.947Z,9.90
2019-05-02T21:32:18.110Z,9.76
2019-05-02T21:34:48.272Z,9.45
2019-05-02T21:37:18.152Z,9.37
2019-05-02T21:39:48.363Z,9.37
2019-05-02T21:42:18.258Z,9.13
2019-05-02T21:44:48.135Z,9.13
2019-05-02T21:47:17.867Z,8.99
2019-05-02T21:50:12.519Z,8.93
2019-05-02T21:53:04.728Z,8.69
2019-05-02T21:55:43.117Z,8.61
2019-05-02T21:58:13.125Z,8.59
2019-05-02T22:01:06.707Z,8.59
2019-05-02T22:03:36.532Z,8.25
2019-05-02T22:06:07.137Z,8.23
2019-05-02T22:08:37.267Z,8.23
2019-05-02T22:11:06.886Z,8.15
2019-05-02T22:13:36.700Z,8.08
2019-05-02T22:16:06.283Z,7.97
2019-05-02T22:18:36.113Z,7.99
2019-05-02T22:21:06.385Z,7.99
2019-05-02T22:23:37.355Z,7.99
2019-05-02T22:26:07.224Z,8.00
2019-05-02T22:28:36.979Z,7.96
2019-05-02T22:31:06.408Z,7.99
2019-05-02T22:33:38.964Z,8.02
2019-05-02T22:36:08.954Z,8.02
2019-05-02T22:39:02.092Z,8.08
2019-05-02T22:41:32.596Z,8.09
2019-05-02T22:44:05.757Z,8.11
2019-05-02T22:46:43.311Z,8.04
2019-05-02T22:49:15.252Z,8.10
2019-05-02T22:51:45.325Z,8.13
2019-05-02T22:54:26.846Z,8.13
2019-05-02T22:56:48.483Z,8.02
2019-05-02T22:59:18.085Z,7.94
2019-05-02T23:01:48.636Z,7.90
2019-05-02T23:04:18.267Z,7.92
2019-05-02T23:06:52.882Z,7.92
2019-05-02T23:09:22.246Z,8.20
2019-05-02T23:11:52.736Z,7.98
2019-05-02T23:14:22.840Z,7.98
2019-05-02T23:16:52.963Z,8.11
2019-05-02T23:19:23.218Z,8.16
2019-05-02T23:21:53.299Z,8.06
2019-05-02T23:24:38.993Z,8.00
2019-05-02T23:27:22.433Z,8.00
2019-05-02T23:29:52.195Z,7.92
2019-05-02T23:32:23.830Z,7.97
2019-05-02T23:34:54.803Z,7.97
2019-05-02T23:37:24.318Z,8.06
2019-05-02T23:39:53.804Z,8.04
2019-05-02T23:42:23.825Z,8.00
2019-05-02T23:44:53.410Z,8.01
2019-05-02T23:47:24.984Z,7.85
2019-05-02T23:49:54.480Z,7.85
2019-05-02T23:52:25.079Z,7.82
2019-05-02T23:54:54.637Z,7.85
2019-05-02T23:57:26.387Z,7.78
2019-05-02T23:59:57.635Z,7.85
